Time;durP1;ratioP1;P1;durP2;ratioP2;P2;SDS_P1;SDS_P2;PMS_P1;PMS_P2;Temp;Humidity;BMP_temperature;BMP_pressure;BME280_temperature;BME280_humidity;BME280_pressure;Samples;Min_cycle;Max_cycle;Signal;HPM_P1;HPM_P2
2022/06/25 00:00:55;;;;;;;0.40;0.30;;;15.20;99.90;;;;;;5072419;28;20739;-67
2022/06/25 00:03:20;;;;;;;0.40;0.20;;;15.10;99.90;;;;;;5071939;28;20822;-67
2022/06/25 00:05:46;;;;;;;0.40;0.20;;;15.20;99.90;;;;;;5072677;28;20396;-67
2022/06/25 00:08:12;;;;;;;0.40;0.30;;;15.20;99.90;;;;;;5071593;28;20408;-67
2022/06/25 00:10:37;;;;;;;0.40;0.30;;;15.10;99.90;;;;;;5072940;28;20383;-67
2022/06/25 00:13:03;;;;;;;0.40;0.20;;;15.20;99.90;;;;;;5071860;28;20391;-67
2022/06/25 00:15:29;;;;;;;0.40;0.20;;;15.20;99.90;;;;;;5072559;28;20399;-67
2022/06/25 00:17:55;;;;;;;0.40;0.20;;;15.10;99.90;;;;;;5072246;28;20961;-67
2022/06/25 00:20:20;;;;;;;0.40;0.20;;;15.20;99.90;;;;;;5071801;28;20384;-67
2022/06/25 00:22:46;;;;;;;0.40;0.20;;;15.10;99.90;;;;;;5072069;28;20499;-67
2022/06/25 00:25:12;;;;;;;0.40;0.30;;;15.10;99.90;;;;;;5071195;28;20399;-67
2022/06/25 00:27:37;;;;;;;0.80;0.80;;;15.10;99.90;;;;;;5072084;28;20887;-67
2022/06/25 00:30:05;;;;;;;0.40;0.20;;;15.20;99.90;;;;;;5071336;28;20399;-67
2022/06/25 00:32:31;;;;;;;0.60;0.60;;;15.10;99.90;;;;;;5007428;28;1837030;-67
2022/06/25 00:34:57;;;;;;;0.40;0.30;;;15.10;99.90;;;;;;5072908;28;20887;-67
2022/06/25 00:37:23;;;;;;;0.40;0.20;;;15.00;99.90;;;;;;5072842;28;20375;-67
2022/06/25 00:39:50;;;;;;;0.40;0.20;;;15.00;99.90;;;;;;5073369;28;20380;-67
2022/06/25 00:42:15;;;;;;;0.40;0.20;;;15.00;99.90;;;;;;5072329;28;20554;-67
2022/06/25 00:44:42;;;;;;;0.40;0.30;;;15.10;99.90;;;;;;5073404;28;20478;-67
2022/06/25 00:47:12;;;;;;;0.70;0.70;;;15.00;99.90;;;;;;5072149;28;20837;-66
2022/06/25 00:49:39;;;;;;;0.40;0.20;;;14.90;99.90;;;;;;5073194;28;20751;-66
2022/06/25 00:52:09;;;;;;;0.40;0.30;;;15.00;99.90;;;;;;5077325;28;20385;-65
2022/06/25 00:54:37;;;;;;;0.40;0.20;;;15.00;99.90;;;;;;5072800;28;20460;-66
2022/06/25 00:57:05;;;;;;;0.40;0.20;;;15.00;99.90;;;;;;5072267;28;20777;-66
2022/06/25 00:59:37;;;;;;;0.40;0.20;;;14.90;99.90;;;;;;5072998;28;20408;-65
2022/06/25 01:02:02;;;;;;;0.40;0.28;;;14.90;99.90;;;;;;5071681;28;20408;-66
2022/06/25 01:04:29;;;;;;;0.40;0.20;;;14.80;99.90;;;;;;5072954;28;20386;-66
2022/06/25 01:06:55;;;;;;;0.60;0.60;;;14.80;99.90;;;;;;5072479;28;20402;-66
2022/06/25 01:09:21;;;;;;;0.40;0.20;;;14.70;99.90;;;;;;5071966;28;20379;-66
2022/06/25 01:11:47;;;;;;;0.40;0.20;;;14.70;99.90;;;;;;5072773;28;20408;-66
2022/06/25 01:14:14;;;;;;;0.40;0.20;;;14.70;99.90;;;;;;5072294;28;20383;-67
2022/06/25 01:16:39;;;;;;;0.50;0.50;;;14.70;99.90;;;;;;5072520;28;20790;-66
2022/06/25 01:19:10;;;;;;;1.10;0.90;;;14.60;99.90;;;;;;5071785;28;20384;-67
2022/06/25 01:21:37;;;;;;;0.40;0.20;;;14.70;99.90;;;;;;5072379;28;20384;-66
2022/06/25 01:24:05;;;;;;;0.40;0.20;;;14.60;99.90;;;;;;5071253;28;20965;-66
2022/06/25 01:26:41;;;;;;;0.40;0.20;;;14.50;99.90;;;;;;5072245;28;20466;-65
2022/06/25 01:29:08;;;;;;;0.40;0.20;;;14.60;99.90;;;;;;5071759;28;20487;-66
2022/06/25 01:31:34;;;;;;;0.40;0.20;;;14.60;99.90;;;;;;5052171;28;20769;-66
2022/06/25 01:34:00;;;;;;;0.40;0.20;;;14.50;99.90;;;;;;5052006;28;20385;-65
2022/06/25 01:36:26;;;;;;;0.40;0.20;;;14.50;99.90;;;;;;5066360;28;20413;-66
2022/06/25 01:38:52;;;;;;;0.40;0.30;;;14.40;99.90;;;;;;5072129;28;20480;-66
2022/06/25 01:41:18;;;;;;;0.40;0.30;;;14.40;99.90;;;;;;5071546;28;20751;-66
2022/06/25 01:43:44;;;;;;;0.40;0.20;;;14.40;99.90;;;;;;5072102;28;20494;-65
2022/06/25 01:46:10;;;;;;;0.40;0.20;;;14.50;99.90;;;;;;5071712;28;20503;-66
2022/06/25 01:48:35;;;;;;;0.40;0.20;;;14.50;99.90;;;;;;5071826;28;20384;-66
2022/06/25 01:51:02;;;;;;;0.40;0.20;;;14.50;99.90;;;;;;5071841;28;20713;-66
2022/06/25 01:53:28;;;;;;;0.40;0.20;;;14.50;99.90;;;;;;5089343;28;20390;-66
2022/06/25 01:55:54;;;;;;;0.40;0.20;;;14.50;99.90;;;;;;5092224;28;20386;-66
2022/06/25 01:58:20;;;;;;;0.40;0.20;;;14.40;99.90;;;;;;5081544;28;21275;-67
2022/06/25 02:00:45;;;;;;;0.40;0.20;;;14.50;99.90;;;;;;5071561;28;20384;-65
2022/06/25 02:03:11;;;;;;;0.40;0.30;;;14.50;99.90;;;;;;5070887;28;20752;-65
2022/06/25 02:08:22;;;;;;;0.40;0.20;;;14.60;99.90;;;;;;5070883;28;20425;-66
2022/06/25 02:10:48;;;;;;;0.40;0.20;;;14.50;99.90;;;;;;5071615;28;20391;-66
2022/06/25 02:13:15;;;;;;;0.40;0.20;;;14.50;99.90;;;;;;5070705;28;20395;-66
2022/06/25 02:15:41;;;;;;;0.40;0.20;;;14.30;99.90;;;;;;5071314;28;20472;-66
2022/06/25 02:18:08;;;;;;;0.40;0.20;;;14.40;99.90;;;;;;5070305;28;20430;-66
2022/06/25 02:20:34;;;;;;;0.40;0.20;;;14.40;99.90;;;;;;5070926;28;20384;-66
2022/06/25 02:23:00;;;;;;;0.40;0.20;;;14.40;99.90;;;;;;5071049;28;20412;-66
2022/06/25 02:25:25;;;;;;;0.40;0.30;;;14.40;99.90;;;;;;5070861;28;20379;-65
2022/06/25 02:27:51;;;;;;;0.40;0.20;;;14.50;99.90;;;;;;5070969;28;20403;-67
2022/06/25 02:30:17;;;;;;;0.40;0.20;;;14.50;99.90;;;;;;5070721;28;20883;-66
2022/06/25 02:32:43;;;;;;;0.40;0.20;;;14.40;99.90;;;;;;5070718;28;20438;-66
2022/06/25 02:35:09;;;;;;;0.40;0.20;;;14.40;99.90;;;;;;5070230;28;20372;-66
2022/06/25 02:37:35;;;;;;;0.40;0.20;;;14.40;99.90;;;;;;5071181;28;20474;-66
2022/06/25 02:40:00;;;;;;;0.40;0.20;;;14.50;99.90;;;;;;5071123;28;20395;-66
2022/06/25 02:42:41;;;;;;;0.40;0.20;;;14.60;99.90;;;;;;5069909;28;20404;-66
2022/06/25 02:45:08;;;;;;;0.40;0.20;;;14.40;99.90;;;;;;5070420;28;20787;-66
2022/06/25 02:47:34;;;;;;;0.40;0.20;;;14.30;99.90;;;;;;5070895;28;20384;-66
2022/06/25 02:50:00;;;;;;;0.40;0.20;;;14.30;99.90;;;;;;5070693;28;20383;-66
2022/06/25 02:52:27;;;;;;;0.40;0.20;;;14.30;99.90;;;;;;5072514;28;20461;-66
2022/06/25 02:54:53;;;;;;;0.40;0.20;;;14.40;99.90;;;;;;5070708;28;20725;-66
2022/06/25 03:00:07;;;;;;;0.40;0.20;;;14.50;99.90;;;;;;5070216;28;20429;-66
2022/06/25 03:02:33;;;;;;;0.40;0.20;;;14.40;99.90;;;;;;5070388;28;20911;-66
2022/06/25 03:04:59;;;;;;;0.40;0.20;;;14.60;99.90;;;;;;5069773;28;20460;-66
2022/06/25 03:07:25;;;;;;;0.40;0.20;;;14.50;99.90;;;;;;5069965;28;20463;-67
2022/06/25 03:09:51;;;;;;;0.40;0.20;;;14.40;99.90;;;;;;5070614;28;20388;-67
2022/06/25 03:12:17;;;;;;;0.40;0.20;;;14.40;99.90;;;;;;5068942;28;20875;-66
2022/06/25 03:14:43;;;;;;;0.40;0.20;;;14.30;99.90;;;;;;5070643;28;20379;-66
2022/06/25 03:17:09;;;;;;;0.40;0.40;;;14.20;99.90;;;;;;5069892;28;20463;-66
2022/06/25 03:19:35;;;;;;;0.40;0.20;;;14.20;99.90;;;;;;5070485;28;20383;-66
2022/06/25 03:22:01;;;;;;;0.40;0.20;;;14.30;99.90;;;;;;5070447;28;20375;-66
2022/06/25 03:24:27;;;;;;;0.40;0.20;;;14.20;99.90;;;;;;5069284;28;20466;-67
2022/06/25 03:26:53;;;;;;;0.40;0.20;;;14.20;99.90;;;;;;5070247;28;20882;-66
2022/06/25 03:29:19;;;;;;;0.40;0.22;;;14.20;99.90;;;;;;5068081;28;20388;-66
2022/06/25 03:31:44;;;;;;;0.40;0.20;;;14.10;99.90;;;;;;5069163;28;20463;-66
2022/06/25 03:34:11;;;;;;;0.40;0.20;;;14.10;99.90;;;;;;5069947;28;20474;-66
2022/06/25 03:36:36;;;;;;;0.40;0.20;;;14.10;99.90;;;;;;5070097;28;20383;-66
2022/06/25 03:39:03;;;;;;;0.40;0.20;;;14.10;99.90;;;;;;5070653;28;20397;-66
2022/06/25 03:41:38;;;;;;;0.40;0.20;;;14.10;99.90;;;;;;5051911;28;21042;-66
2022/06/25 03:44:08;;;;;;;0.40;0.20;;;14.20;99.90;;;;;;5070515;28;20791;-66
2022/06/25 03:46:36;;;;;;;0.40;0.20;;;14.10;99.90;;;;;;5069804;28;20465;-66
2022/06/25 03:49:03;;;;;;;0.40;0.20;;;14.00;99.90;;;;;;5070086;28;20390;-66
2022/06/25 03:51:29;;;;;;;0.40;0.20;;;14.10;99.90;;;;;;5070356;28;20368;-66
2022/06/25 03:53:55;;;;;;;0.40;0.20;;;14.00;99.90;;;;;;5082544;28;20414;-66
2022/06/25 03:56:21;;;;;;;0.40;0.20;;;14.10;99.90;;;;;;5069745;28;20372;-66
2022/06/25 03:58:47;;;;;;;0.40;0.20;;;14.00;99.90;;;;;;5070201;28;20380;-66
2022/06/25 04:01:13;;;;;;;0.40;0.20;;;14.10;99.90;;;;;;5069361;28;20372;-66
2022/06/25 04:03:42;;;;;;;0.40;0.30;;;14.10;99.90;;;;;;5069370;28;20430;-66
2022/06/25 04:06:08;;;;;;;0.40;0.20;;;14.00;99.90;;;;;;5069513;28;20387;-66
2022/06/25 04:08:33;;;;;;;0.40;0.20;;;14.00;99.90;;;;;;5069546;28;20388;-66
2022/06/25 04:11:00;;;;;;;0.40;0.20;;;14.10;99.90;;;;;;5070209;28;20784;-66
2022/06/25 04:13:26;;;;;;;0.40;0.20;;;14.30;99.90;;;;;;5069487;28;20754;-66
2022/06/25 04:15:52;;;;;;;0.40;0.20;;;14.40;99.90;;;;;;5069953;28;20391;-66
2022/06/25 04:18:18;;;;;;;0.40;0.20;;;14.40;99.90;;;;;;5069401;28;20391;-66
2022/06/25 04:20:43;;;;;;;0.40;0.30;;;14.30;99.90;;;;;;5069619;28;20464;-66
2022/06/25 04:23:10;;;;;;;0.40;0.20;;;14.20;99.90;;;;;;5052009;28;20418;-66
2022/06/25 04:25:36;;;;;;;0.40;0.20;;;14.30;99.90;;;;;;5068951;28;20383;-67
2022/06/25 04:30:46;;;;;;;0.40;0.20;;;14.30;99.90;;;;;;5069838;28;20409;-66
2022/06/25 04:33:11;;;;;;;1.60;0.70;;;14.30;99.90;;;;;;5069205;28;20767;-66
2022/06/25 04:35:37;;;;;;;0.40;0.20;;;14.30;99.90;;;;;;5068486;28;20948;-67
2022/06/25 04:38:03;;;;;;;0.70;0.70;;;14.30;99.90;;;;;;5069959;28;20477;-66
2022/06/25 04:40:29;;;;;;;0.40;0.20;;;14.30;99.90;;;;;;5068915;28;20383;-66
2022/06/25 04:42:55;;;;;;;0.40;0.20;;;14.30;99.90;;;;;;5070512;28;20488;-66
2022/06/25 04:45:21;;;;;;;0.40;0.20;;;14.40;99.90;;;;;;5072379;28;20827;-66
2022/06/25 04:47:47;;;;;;;0.40;0.20;;;14.40;99.90;;;;;;5073868;28;20380;-67
2022/06/25 04:50:13;;;;;;;0.40;0.20;;;14.50;99.90;;;;;;5073100;28;20521;-67
2022/06/25 04:52:38;;;;;;;0.40;0.20;;;14.60;99.90;;;;;;5084099;28;20382;-66
2022/06/25 04:55:05;;;;;;;0.40;0.20;;;14.70;99.90;;;;;;5079810;28;20391;-67
2022/06/25 04:57:31;;;;;;;0.40;0.20;;;14.80;99.90;;;;;;5072501;28;20390;-66
2022/06/25 04:59:56;;;;;;;0.40;0.20;;;14.80;99.90;;;;;;5073003;28;20926;-66
2022/06/25 05:02:22;;;;;;;0.40;0.20;;;14.90;99.90;;;;;;5072483;28;20519;-66
2022/06/25 05:04:48;;;;;;;0.40;0.20;;;14.90;99.90;;;;;;5072344;28;20737;-66
2022/06/25 05:07:14;;;;;;;0.40;0.30;;;15.10;99.90;;;;;;5072823;28;20512;-66
2022/06/25 05:09:39;;;;;;;0.40;0.20;;;15.20;99.90;;;;;;5072823;28;20445;-66
2022/06/25 05:12:06;;;;;;;0.40;0.20;;;15.30;99.90;;;;;;5072938;28;20879;-66
2022/06/25 05:14:32;;;;;;;0.50;0.50;;;15.30;99.90;;;;;;5072206;28;20652;-66
2022/06/25 05:16:57;;;;;;;0.40;0.20;;;15.40;99.90;;;;;;5073015;28;20802;-67
2022/06/25 05:19:23;;;;;;;0.40;0.30;;;15.50;99.90;;;;;;5071634;28;20891;-66
2022/06/25 05:21:49;;;;;;;0.40;0.20;;;15.50;99.90;;;;;;5073366;28;20384;-67
2022/06/25 05:24:14;;;;;;;0.40;0.20;;;15.60;99.90;;;;;;5072525;28;20790;-66
2022/06/25 05:26:40;;;;;;;1.10;1.00;;;15.70;99.90;;;;;;5072406;28;20471;-66
2022/06/25 05:29:06;;;;;;;0.40;0.20;;;15.80;99.90;;;;;;5072310;28;20388;-67
2022/06/25 05:31:31;;;;;;;0.40;0.20;;;15.80;99.90;;;;;;5071052;28;20412;-66
2022/06/25 05:33:57;;;;;;;0.40;0.20;;;16.00;99.90;;;;;;5072909;28;20453;-66
2022/06/25 05:36:23;;;;;;;0.40;0.20;;;16.00;99.90;;;;;;5071804;28;20375;-67
2022/06/25 05:38:48;;;;;;;0.40;0.30;;;16.10;99.90;;;;;;5072593;28;20372;-67
2022/06/25 05:41:14;;;;;;;0.40;0.20;;;16.20;99.90;;;;;;5072113;28;20395;-67
2022/06/25 05:43:40;;;;;;;0.40;0.20;;;16.40;99.90;;;;;;5071602;28;20412;-67
2022/06/25 05:46:06;;;;;;;0.60;0.60;;;16.40;99.90;;;;;;5072442;28;20740;-66
2022/06/25 05:48:32;;;;;;;0.40;0.20;;;16.60;99.90;;;;;;5053736;28;20856;-66
2022/06/25 05:50:58;;;;;;;0.40;0.20;;;16.60;99.90;;;;;;5072348;28;20380;-66
2022/06/25 05:53:24;;;;;;;0.40;0.20;;;16.70;99.90;;;;;;5071409;28;20445;-66
2022/06/25 05:55:51;;;;;;;0.40;0.30;;;16.80;99.90;;;;;;5071652;28;20402;-66
2022/06/25 05:58:16;;;;;;;0.80;0.80;;;16.80;99.90;;;;;;5071924;28;20459;-66
2022/06/25 06:00:42;;;;;;;0.50;0.50;;;16.80;99.90;;;;;;5071784;28;20789;-67
2022/06/25 06:03:09;;;;;;;0.40;0.22;;;16.90;99.90;;;;;;5071493;28;20510;-67
2022/06/25 06:05:35;;;;;;;0.40;0.20;;;17.00;99.90;;;;;;5070884;28;20504;-66
2022/06/25 06:08:01;;;;;;;0.40;0.20;;;17.00;99.90;;;;;;5072121;28;20375;-66
2022/06/25 06:10:27;;;;;;;0.40;0.20;;;17.10;99.90;;;;;;5070608;28;20799;-66
2022/06/25 06:12:53;;;;;;;0.40;0.20;;;17.20;99.90;;;;;;5072085;28;20375;-66
2022/06/25 06:15:18;;;;;;;0.40;0.20;;;17.30;99.90;;;;;;5070863;28;20785;-66
2022/06/25 06:17:44;;;;;;;0.40;0.20;;;17.40;99.90;;;;;;5071312;28;20376;-66
2022/06/25 06:20:10;;;;;;;0.40;0.20;;;17.50;99.90;;;;;;5071659;28;20372;-66
2022/06/25 06:22:36;;;;;;;0.40;0.20;;;17.50;99.90;;;;;;5070778;28;20474;-66
2022/06/25 06:25:03;;;;;;;0.40;0.30;;;17.60;99.90;;;;;;5071407;28;20387;-67
2022/06/25 06:27:29;;;;;;;0.40;0.22;;;17.70;99.90;;;;;;5070561;28;20782;-66
2022/06/25 06:29:54;;;;;;;0.40;0.20;;;17.70;99.90;;;;;;5071109;28;20379;-67
2022/06/25 06:32:21;;;;;;;0.40;0.20;;;17.70;99.90;;;;;;5055421;28;20880;-66
2022/06/25 06:34:46;;;;;;;0.40;0.30;;;18.00;99.90;;;;;;5071215;28;20871;-67
2022/06/25 06:37:12;;;;;;;0.40;0.25;;;18.10;99.90;;;;;;5080578;28;20481;-66
2022/06/25 06:39:38;;;;;;;0.40;0.30;;;18.10;99.90;;;;;;5065496;28;20881;-66
2022/06/25 06:42:04;;;;;;;0.40;0.20;;;18.20;99.90;;;;;;5070836;28;20395;-66
2022/06/25 06:44:29;;;;;;;0.40;0.20;;;18.30;99.90;;;;;;5070469;28;20392;-66
2022/06/25 06:46:55;;;;;;;0.40;0.20;;;18.30;99.90;;;;;;5070403;28;20466;-66
2022/06/25 06:49:20;;;;;;;0.40;0.20;;;18.30;99.90;;;;;;5070355;28;20479;-67
2022/06/25 06:51:46;;;;;;;0.40;0.30;;;18.40;99.90;;;;;;5067292;28;20903;-66
2022/06/25 06:54:12;;;;;;;0.40;0.30;;;18.50;99.90;;;;;;5052935;28;20385;-68
2022/06/25 06:56:38;;;;;;;0.40;0.20;;;18.50;99.90;;;;;;5066052;28;20381;-66
2022/06/25 06:59:03;;;;;;;0.40;0.30;;;18.60;99.90;;;;;;5051228;28;20451;-67
2022/06/25 07:01:29;;;;;;;0.40;0.20;;;18.60;99.90;;;;;;5050017;28;20385;-66
2022/06/25 07:03:55;;;;;;;0.40;0.20;;;18.60;99.90;;;;;;5066994;28;20945;-66
2022/06/25 07:06:21;;;;;;;0.40;0.20;;;18.70;99.90;;;;;;5061171;28;20805;-67
2022/06/25 07:08:47;;;;;;;0.40;0.20;;;18.70;99.90;;;;;;5050746;28;20390;-67
2022/06/25 07:11:28;;;;;;;0.40;0.20;;;18.90;99.90;;;;;;5051009;28;20457;-67
2022/06/25 07:13:59;;;;;;;0.40;0.30;;;18.90;99.90;;;;;;5050699;28;20412;-67
2022/06/25 07:16:25;;;;;;;0.40;0.20;;;19.00;99.90;;;;;;5049983;28;20443;-66
2022/06/25 07:18:51;;;;;;;0.40;0.20;;;19.20;99.90;;;;;;5063044;28;20402;-67
2022/06/25 07:21:17;;;;;;;0.40;0.30;;;19.40;99.90;;;;;;5069535;28;20392;-66
2022/06/25 07:23:43;;;;;;;0.40;0.20;;;19.50;99.90;;;;;;5068880;28;20399;-66
2022/06/25 07:26:09;;;;;;;0.40;0.20;;;19.50;99.90;;;;;;5069910;28;20860;-66
2022/06/25 07:28:34;;;;;;;0.40;0.30;;;19.50;99.90;;;;;;5071067;28;20400;-66
2022/06/25 07:31:00;;;;;;;0.40;0.30;;;19.80;99.90;;;;;;5071521;28;20390;-66
2022/06/25 07:33:26;;;;;;;0.40;0.30;;;20.10;99.90;;;;;;5073778;28;20429;-66
2022/06/25 07:35:51;;;;;;;0.40;0.30;;;20.10;99.90;;;;;;5069625;28;20390;-66
2022/06/25 07:38:17;;;;;;;0.40;0.20;;;20.10;99.90;;;;;;5071229;28;20836;-67
2022/06/25 07:40:43;;;;;;;0.40;0.20;;;20.00;99.90;;;;;;5071392;28;21022;-70
2022/06/25 07:43:08;;;;;;;0.40;0.30;;;20.00;99.90;;;;;;5070230;28;20489;-69
2022/06/25 07:45:34;;;;;;;0.40;0.20;;;20.30;99.90;;;;;;5069612;28;20428;-66
2022/06/25 07:48:00;;;;;;;0.40;0.20;;;20.30;99.90;;;;;;5065469;28;20421;-66
2022/06/25 07:53:10;;;;;;;0.40;0.20;;;20.50;99.90;;;;;;5063544;28;20487;-66
2022/06/25 07:55:35;;;;;;;0.40;0.30;;;20.50;99.90;;;;;;5064911;28;20477;-66
2022/06/25 07:58:01;;;;;;;0.40;0.30;;;20.70;99.90;;;;;;5070671;28;20370;-67
2022/06/25 08:00:27;;;;;;;0.40;0.30;;;20.80;99.90;;;;;;5065376;28;20428;-68
2022/06/25 08:02:52;;;;;;;0.40;0.30;;;20.80;99.90;;;;;;5070652;28;20495;-67
2022/06/25 08:05:18;;;;;;;0.40;0.30;;;20.70;99.90;;;;;;5070470;28;20401;-67
2022/06/25 08:07:46;;;;;;;0.40;0.20;;;20.50;99.90;;;;;;5069216;28;20715;-67
2022/06/25 08:10:12;;;;;;;0.40;0.40;;;20.60;99.90;;;;;;5061982;28;20746;-67
2022/06/25 08:12:37;;;;;;;0.40;0.30;;;20.50;99.90;;;;;;5072207;28;20900;-67
2022/06/25 08:15:04;;;;;;;0.40;0.20;;;20.70;99.90;;;;;;5067776;28;20423;-67
2022/06/25 08:17:30;;;;;;;0.40;0.30;;;21.00;99.90;;;;;;5059655;28;20376;-68
2022/06/25 08:19:56;;;;;;;0.40;0.20;;;21.30;99.90;;;;;;5055629;28;20923;-67
2022/06/25 08:22:22;;;;;;;0.40;0.20;;;21.30;99.90;;;;;;5074750;28;20431;-67
2022/06/25 08:24:47;;;;;;;0.40;0.30;;;21.20;99.90;;;;;;5074631;28;20474;-67
2022/06/25 08:27:13;;;;;;;0.40;0.20;;;21.20;99.90;;;;;;5071747;28;20379;-67
2022/06/25 08:29:39;;;;;;;0.40;0.23;;;21.00;99.90;;;;;;5069684;28;20917;-67
2022/06/25 08:32:05;;;;;;;0.40;0.30;;;21.00;99.90;;;;;;5076770;28;20818;-67
2022/06/25 08:34:30;;;;;;;0.40;0.30;;;21.10;99.90;;;;;;5069664;28;20420;-68
2022/06/25 08:36:56;;;;;;;0.40;0.20;;;21.40;99.90;;;;;;5051576;28;20401;-67
2022/06/25 08:39:22;;;;;;;0.40;0.30;;;21.60;99.90;;;;;;5067026;28;20411;-68
2022/06/25 08:41:47;;;;;;;0.40;0.20;;;21.80;99.90;;;;;;5075366;28;20470;-68
2022/06/25 08:44:14;;;;;;;0.40;0.30;;;21.70;99.90;;;;;;5073647;28;20763;-67
2022/06/25 08:46:40;;;;;;;0.40;0.30;;;21.60;99.90;;;;;;5069598;28;20886;-70
2022/06/25 08:49:09;;;;;;;0.70;0.50;;;21.80;99.90;;;;;;5074484;28;20414;-69
2022/06/25 08:51:38;;;;;;;0.90;0.80;;;21.80;99.90;;;;;;5068247;28;20382;-68
2022/06/25 08:54:08;;;;;;;0.40;0.20;;;21.90;99.90;;;;;;5069662;28;20511;-68
2022/06/25 08:56:35;;;;;;;0.40;0.30;;;21.80;99.90;;;;;;5068338;28;20401;-69
2022/06/25 08:59:01;;;;;;;0.50;0.50;;;21.60;99.90;;;;;;5070657;28;20378;-66
2022/06/25 09:01:27;;;;;;;0.40;0.30;;;21.60;99.90;;;;;;5067548;28;20403;-66
2022/06/25 09:03:53;;;;;;;0.40;0.20;;;21.70;99.90;;;;;;5070278;28;20963;-68
2022/06/25 09:06:21;;;;;;;0.40;0.30;;;21.90;99.90;;;;;;5073470;28;20398;-69
2022/06/25 09:09:10;;;;;;;0.40;0.30;;;22.10;99.90;;;;;;5060653;28;20401;-68
2022/06/25 09:11:56;;;;;;;0.40;0.30;;;21.90;99.90;;;;;;5066312;28;20411;-68
2022/06/25 09:14:27;;;;;;;0.40;0.20;;;22.00;99.90;;;;;;5073164;28;20390;-68
2022/06/25 09:17:01;;;;;;;0.40;0.20;;;22.10;99.90;;;;;;5055075;28;20441;-68
2022/06/25 09:19:29;;;;;;;0.40;0.20;;;22.10;99.90;;;;;;5069043;28;20454;-67
2022/06/25 09:21:54;;;;;;;0.40;0.20;;;22.20;99.90;;;;;;5074233;28;20412;-68
2022/06/25 09:24:20;;;;;;;0.40;0.20;;;22.30;99.90;;;;;;5071318;28;20398;-68
2022/06/25 09:26:52;;;;;;;0.40;0.20;;;22.50;99.90;;;;;;5063875;28;20424;-68
2022/06/25 09:29:18;;;;;;;0.70;0.50;;;22.60;99.90;;;;;;5077071;28;20378;-66
2022/06/25 09:31:44;;;;;;;0.40;0.20;;;22.40;99.90;;;;;;5091893;28;20534;-69
2022/06/25 09:34:10;;;;;;;0.40;0.30;;;22.80;99.90;;;;;;5092753;28;20370;-68
2022/06/25 09:36:39;;;;;;;0.40;0.30;;;22.80;99.90;;;;;;5091967;28;20409;-67
2022/06/25 09:39:05;;;;;;;0.40;0.20;;;22.90;99.90;;;;;;5092268;28;20382;-67
2022/06/25 09:41:50;;;;;;;0.40;0.20;;;23.00;99.90;;;;;;5091776;28;20370;-67
2022/06/25 09:44:18;;;;;;;0.40;0.30;;;23.30;99.90;;;;;;5092554;28;20402;-68
2022/06/25 09:46:58;;;;;;;0.40;0.30;;;23.20;99.90;;;;;;5091875;28;20377;-67
2022/06/25 09:49:24;;;;;;;0.40;0.20;;;23.00;99.90;;;;;;5092144;28;20478;-69
2022/06/25 09:52:05;;;;;;;0.40;0.20;;;23.00;99.90;;;;;;5084298;28;20405;-66
2022/06/25 09:54:32;;;;;;;0.40;0.30;;;22.80;99.90;;;;;;5051274;28;20699;-66
2022/06/25 09:57:01;;;;;;;0.40;0.20;;;22.90;99.90;;;;;;5052180;28;20401;-66
2022/06/25 09:59:30;;;;;;;0.40;0.20;;;23.10;99.90;;;;;;5051541;28;20397;-67
2022/06/25 10:01:59;;;;;;;0.40;0.20;;;22.90;99.90;;;;;;5052018;28;20401;-68
2022/06/25 10:04:28;;;;;;;0.40;0.20;;;22.90;99.90;;;;;;5051776;28;20414;-67
2022/06/25 10:06:54;;;;;;;0.40;0.20;;;23.10;99.90;;;;;;5052520;28;20943;-67
2022/06/25 10:09:23;;;;;;;0.40;0.40;;;23.30;99.90;;;;;;5052239;28;20741;-67
2022/06/25 10:11:49;;;;;;;0.40;0.20;;;23.10;99.90;;;;;;5051537;28;20373;-67
2022/06/25 10:14:15;;;;;;;0.40;0.40;;;23.20;99.90;;;;;;5051910;28;20435;-67
2022/06/25 10:16:43;;;;;;;0.40;0.30;;;23.20;99.90;;;;;;5050968;28;20389;-69
2022/06/25 10:19:10;;;;;;;0.40;0.20;;;23.50;99.90;;;;;;5051711;28;20386;-68
2022/06/25 10:21:36;;;;;;;0.40;0.20;;;23.50;99.90;;;;;;5050962;28;20382;-68
2022/06/25 10:24:04;;;;;;;0.40;0.20;;;23.40;99.90;;;;;;5051342;28;20462;-67
2022/06/25 10:26:31;;;;;;;0.40;0.20;;;23.60;99.90;;;;;;5050468;28;20390;-67
2022/06/25 10:29:00;;;;;;;0.40;0.20;;;23.80;99.90;;;;;;5051630;28;20457;-67
2022/06/25 10:31:25;;;;;;;0.40;0.20;;;23.90;99.90;;;;;;5051840;28;20904;-67
2022/06/25 10:33:57;;;;;;;0.40;0.20;;;23.90;99.90;;;;;;5050312;28;20492;-67
2022/06/25 10:36:46;;;;;;;0.40;0.20;;;23.80;99.90;;;;;;5051478;28;20389;-68
2022/06/25 10:39:27;;;;;;;0.40;0.20;;;23.70;99.70;;;;;;5051338;28;20465;-68
2022/06/25 10:45:04;;;;;;;0.40;0.20;;;23.80;99.40;;;;;;5050989;28;20431;-67
2022/06/25 10:47:39;;;;;;;0.40;0.25;;;23.90;98.20;;;;;;5050624;28;20474;-67
2022/06/25 10:50:20;;;;;;;0.40;0.20;;;23.80;98.50;;;;;;5051055;28;20386;-69
2022/06/25 10:53:06;;;;;;;0.50;0.40;;;24.00;99.30;;;;;;5073459;28;20397;-68
2022/06/25 10:55:58;;;;;;;0.40;0.20;;;24.10;99.70;;;;;;5090523;28;20485;-67
2022/06/25 10:58:26;;;;;;;0.40;0.20;;;24.10;97.80;;;;;;5091179;28;20386;-67
2022/06/25 11:00:53;;;;;;;0.40;0.20;;;24.40;99.00;;;;;;5090382;28;20497;-68
2022/06/25 11:03:38;;;;;;;0.40;0.20;;;24.40;96.60;;;;;;5090934;28;20493;-67
2022/06/25 11:06:30;;;;;;;0.40;0.20;;;24.50;96.70;;;;;;5091296;28;20822;-67
2022/06/25 11:09:08;;;;;;;0.40;0.20;;;24.50;95.40;;;;;;5091189;28;20374;-67
2022/06/25 11:11:34;;;;;;;0.90;0.70;;;24.60;97.60;;;;;;5089983;28;20935;-67
2022/06/25 11:14:03;;;;;;;0.40;0.20;;;24.90;96.70;;;;;;5091029;28;20385;-67
2022/06/25 11:16:29;;;;;;;0.50;0.40;;;25.00;96.80;;;;;;5090578;28;20466;-68
2022/06/25 11:18:58;;;;;;;0.40;0.30;;;25.20;95.10;;;;;;5090355;28;20468;-67
2022/06/25 11:21:35;;;;;;;0.40;0.20;;;25.20;95.40;;;;;;5090862;28;20461;-68
2022/06/25 11:24:25;;;;;;;0.40;0.20;;;25.10;93.50;;;;;;5091288;28;20456;-69
2022/06/25 11:29:52;;;;;;;0.40;0.20;;;25.60;95.10;;;;;;5090117;28;20372;-67
2022/06/25 11:32:24;;;;;;;0.40;0.30;;;26.10;93.00;;;;;;5090649;28;20410;-67
2022/06/25 11:34:55;;;;;;;0.40;0.20;;;26.60;95.90;;;;;;5090011;28;20990;-68
2022/06/25 11:37:22;;;;;;;0.40;0.20;;;27.10;91.30;;;;;;5090884;28;20842;-68
2022/06/25 11:39:48;;;;;;;0.40;0.20;;;27.00;86.70;;;;;;5089798;28;20378;-68
2022/06/25 11:42:15;;;;;;;0.40;0.30;;;26.00;89.20;;;;;;5090861;28;20382;-68
2022/06/25 11:44:49;;;;;;;0.40;0.30;;;26.20;87.70;;;;;;5089708;28;20504;-68
2022/06/25 11:47:19;;;;;;;0.40;0.20;;;27.10;83.90;;;;;;5073157;28;20469;-68
2022/06/25 11:49:46;;;;;;;0.40;0.28;;;27.40;84.30;;;;;;5089794;28;20447;-69
2022/06/25 11:52:13;;;;;;;0.40;0.30;;;27.70;84.30;;;;;;5076912;28;20416;-69
2022/06/25 11:54:40;;;;;;;0.90;0.90;;;28.30;80.90;;;;;;5053037;28;20941;-69
2022/06/25 11:57:09;;;;;;;0.40;0.20;;;29.00;78.30;;;;;;5054339;28;20409;-68
2022/06/25 11:59:38;;;;;;;0.40;0.30;;;29.30;74.60;;;;;;5053628;28;20389;-70
2022/06/25 12:02:09;;;;;;;0.40;0.20;;;29.00;72.20;;;;;;5054270;28;20440;-68
2022/06/25 12:04:56;;;;;;;0.40;0.20;;;29.30;76.60;;;;;;5053602;28;20932;-68
2022/06/25 12:07:27;;;;;;;0.40;0.20;;;28.40;78.10;;;;;;5054101;28;20901;-68
2022/06/25 12:09:59;;;;;;;0.40;0.20;;;28.50;75.90;;;;;;5053618;28;20404;-68
2022/06/25 12:12:25;;;;;;;0.40;0.20;;;29.00;73.70;;;;;;5054783;28;20373;-68
2022/06/25 12:14:53;;;;;;;0.40;0.20;;;28.90;74.60;;;;;;5053503;28;20428;-67
2022/06/25 12:17:19;;;;;;;0.40;0.20;;;28.00;77.20;;;;;;5052966;28;20389;-67
2022/06/25 12:19:53;;;;;;;0.40;0.20;;;27.80;77.60;;;;;;5053321;28;20386;-67
2022/06/25 12:22:22;;;;;;;0.40;0.20;;;26.80;84.20;;;;;;5054016;28;20420;-68
2022/06/25 12:24:48;;;;;;;0.40;0.20;;;26.10;84.90;;;;;;5052924;28;20392;-67
2022/06/25 12:27:14;;;;;;;0.40;0.20;;;26.00;91.80;;;;;;5054071;28;20385;-66
2022/06/25 12:29:40;;;;;;;0.40;0.20;;;26.70;87.00;;;;;;5052859;28;20389;-67
2022/06/25 12:32:05;;;;;;;0.40;0.20;;;27.10;87.20;;;;;;5053519;28;20516;-67
2022/06/25 12:34:31;;;;;;;0.40;0.20;;;28.00;78.40;;;;;;5054030;28;20439;-67
2022/06/25 12:36:57;;;;;;;0.40;0.20;;;28.40;78.00;;;;;;5052981;28;20381;-67
2022/06/25 12:39:30;;;;;;;0.40;0.20;;;27.60;82.10;;;;;;5052419;28;20393;-67
2022/06/25 12:41:56;;;;;;;0.40;0.20;;;28.10;78.00;;;;;;5052791;28;20386;-68
2022/06/25 12:44:22;;;;;;;0.40;0.20;;;29.90;74.60;;;;;;5053734;28;20541;-68
2022/06/25 12:47:01;;;;;;;0.40;0.20;;;30.20;76.60;;;;;;5052926;28;20381;-68
2022/06/25 12:49:52;;;;;;;0.40;0.20;;;29.30;74.40;;;;;;5053639;28;20700;-68
2022/06/25 12:52:34;;;;;;;0.40;0.20;;;28.40;82.10;;;;;;5069073;28;20378;-68
2022/06/25 12:55:00;;;;;;;0.40;0.20;;;27.60;85.20;;;;;;5092915;28;20389;-68
2022/06/25 12:57:28;;;;;;;0.40;0.20;;;26.90;82.90;;;;;;5093679;28;20370;-68
2022/06/25 12:59:55;;;;;;;0.40;0.20;;;26.60;87.30;;;;;;5092556;28;20417;-68
2022/06/25 13:02:22;;;;;;;0.40;0.20;;;26.50;87.20;;;;;;5075010;28;20821;-68
2022/06/25 13:04:48;;;;;;;0.40;0.30;;;26.30;89.90;;;;;;5092079;28;20383;-68
2022/06/25 13:07:14;;;;;;;0.40;0.30;;;26.10;90.30;;;;;;5093420;28;20731;-68